createdAt,value
2019-05-15T00:01:10.602Z,2.43
2019-05-15T00:03:40.240Z,3.03
2019-05-15T00:09:01.103Z,3.20
2019-05-15T00:11:31.068Z,2.57
2019-05-15T01:09:51.580Z,2.50
2019-05-15T01:12:38.152Z,3.30
2019-05-15T01:31:33.171Z,2.33
2019-05-15T01:34:29.237Z,3.00
2019-05-15T01:38:11.145Z,2.37
2019-05-15T01:40:32.708Z,4.17
2019-05-15T01:55:28.399Z,2.60
2019-05-15T05:31:59.045Z,3.90
2019-05-15T05:34:32.484Z,3.50
2019-05-15T05:37:02.214Z,3.23
2019-05-15T05:39:32.014Z,3.23
2019-05-15T05:42:02.031Z,3.30
2019-05-15T05:44:31.812Z,2.90
2019-05-15T05:47:01.788Z,2.63
2019-05-15T05:49:31.692Z,3.07
2019-05-15T05:52:01.410Z,2.20
2019-05-15T05:54:31.046Z,2.70
2019-05-15T05:57:00.874Z,2.00
2019-05-15T05:59:30.850Z,2.47
2019-05-15T06:02:01.007Z,1.90
2019-05-15T06:04:30.759Z,1.77
2019-05-15T06:07:09.217Z,1.80
2019-05-15T06:09:32.379Z,1.70
2019-05-15T06:12:02.613Z,2.07
2019-05-15T06:14:32.324Z,1.30
2019-05-15T06:17:02.046Z,1.97
2019-05-15T06:19:31.968Z,1.43
2019-05-15T06:22:01.763Z,1.40
2019-05-15T06:24:31.526Z,1.30
2019-05-15T06:27:01.503Z,1.30
2019-05-15T06:29:31.400Z,1.30
2019-05-15T06:32:01.177Z,1.80
2019-05-15T06:34:30.941Z,1.40
2019-05-15T06:37:00.868Z,1.40
2019-05-15T06:39:30.862Z,1.30
2019-05-15T06:42:00.603Z,1.77
2019-05-15T06:44:30.295Z,1.33
2019-05-15T06:47:01.572Z,1.60
2019-05-15T06:49:31.522Z,1.50
2019-05-15T06:52:01.205Z,1.80
2019-05-15T06:54:31.176Z,1.70
2019-05-15T06:57:00.936Z,2.10
2019-05-15T06:59:30.679Z,1.70
2019-05-15T07:02:00.406Z,1.80
2019-05-15T07:04:30.606Z,1.80
2019-05-15T07:07:00.343Z,1.77
2019-05-15T07:09:30.297Z,1.40
2019-05-15T07:12:00.004Z,1.53
2019-05-15T07:14:30.083Z,1.70
2019-05-15T07:17:00.061Z,1.53
2019-05-15T07:19:30.234Z,1.63
2019-05-15T07:21:59.960Z,1.73
2019-05-15T07:24:29.585Z,1.83
2019-05-15T07:26:59.641Z,1.80
2019-05-15T07:29:29.933Z,1.53
2019-05-15T07:31:59.966Z,1.57
2019-05-15T07:34:30.426Z,1.50
2019-05-15T07:37:00.139Z,1.73
2019-05-15T07:39:30.173Z,1.40
2019-05-15T07:41:59.830Z,1.60
2019-05-15T07:44:29.693Z,1.67
2019-05-15T07:46:59.777Z,1.63
2019-05-15T07:49:29.562Z,1.50
2019-05-15T07:51:59.521Z,1.73
2019-05-15T07:54:29.372Z,1.50
2019-05-15T07:56:59.068Z,1.50
2019-05-15T07:59:28.824Z,1.40
2019-05-15T08:01:59.033Z,1.47
2019-05-15T08:04:30.571Z,1.60
2019-05-15T08:07:00.100Z,1.70
2019-05-15T08:09:29.962Z,1.90
2019-05-15T08:12:03.121Z,1.63
2019-05-15T08:14:31.160Z,2.13
2019-05-15T08:17:00.801Z,1.50
2019-05-15T08:19:30.516Z,2.07
2019-05-15T08:22:00.459Z,1.70
2019-05-15T08:24:30.278Z,1.60
2019-05-15T08:27:00.709Z,1.83
2019-05-15T08:29:30.456Z,1.67
2019-05-15T08:32:00.546Z,1.60
2019-05-15T08:34:30.599Z,1.90
2019-05-15T08:37:00.582Z,1.83
2019-05-15T08:39:30.500Z,1.60
2019-05-15T08:42:00.157Z,2.47
2019-05-15T08:44:29.953Z,2.57
2019-05-15T08:46:59.662Z,2.93
2019-05-15T08:49:29.625Z,2.83
2019-05-15T08:51:59.606Z,2.37
2019-05-15T08:54:29.622Z,2.67
2019-05-15T08:56:59.443Z,1.77
2019-05-15T08:59:29.602Z,2.50
2019-05-15T09:01:59.470Z,1.60
2019-05-15T09:04:34.628Z,1.77
2019-05-15T09:07:01.406Z,4.13
2019-05-15T09:09:31.394Z,2.63
2019-05-15T09:12:01.191Z,1.70
2019-05-15T09:14:30.911Z,1.37
2019-05-15T09:17:00.625Z,1.60
2019-05-15T09:19:30.361Z,1.60
2019-05-15T09:22:00.061Z,1.40
2019-05-15T09:24:29.712Z,1.50
2019-05-15T09:26:59.688Z,1.60
2019-05-15T09:29:29.784Z,2.03
2019-05-15T09:31:59.542Z,1.67
2019-05-15T09:34:45.264Z,1.60
2019-05-15T09:37:00.747Z,1.63
2019-05-15T09:39:30.450Z,1.70
2019-05-15T09:42:00.189Z,1.70
2019-05-15T09:44:29.968Z,1.40
2019-05-15T09:46:59.740Z,1.60
2019-05-15T09:49:31.245Z,1.60
2019-05-15T09:52:00.977Z,2.23
2019-05-15T09:54:30.662Z,1.93
2019-05-15T09:57:00.453Z,1.70
2019-05-15T09:59:30.632Z,1.50
2019-05-15T10:02:00.719Z,1.80
2019-05-15T10:04:30.625Z,1.77
2019-05-15T10:07:00.455Z,1.60
2019-05-15T10:09:30.498Z,1.50
2019-05-15T10:12:00.222Z,1.60
2019-05-15T10:14:29.931Z,1.40
2019-05-15T10:16:59.669Z,1.60
2019-05-15T10:19:29.400Z,1.80
2019-05-15T10:21:59.662Z,1.70
2019-05-15T10:24:29.750Z,1.90
2019-05-15T10:26:59.561Z,1.50
2019-05-15T10:29:29.559Z,1.50
2019-05-15T10:31:59.599Z,1.47
2019-05-15T10:34:29.559Z,1.53
2019-05-15T10:36:59.448Z,1.90
2019-05-15T10:39:29.120Z,1.83
2019-05-15T10:41:59.136Z,1.10
2019-05-15T10:44:29.094Z,1.50
2019-05-15T10:46:58.803Z,1.47
2019-05-15T10:49:28.499Z,1.40
2019-05-15T10:51:58.598Z,1.20
2019-05-15T10:54:29.317Z,1.40
2019-05-15T10:57:00.842Z,1.47
2019-05-15T10:59:30.730Z,1.10
2019-05-15T11:02:00.432Z,1.50
2019-05-15T11:04:30.377Z,1.47
2019-05-15T11:07:00.109Z,1.30
2019-05-15T11:09:29.885Z,1.77
2019-05-15T11:11:59.711Z,1.30
2019-05-15T11:14:29.388Z,1.60
2019-05-15T11:16:59.140Z,1.40
2019-05-15T11:19:35.636Z,1.13
2019-05-15T11:22:00.248Z,1.93
2019-05-15T11:24:32.452Z,1.40
2019-05-15T11:27:02.527Z,1.53
2019-05-15T11:29:32.356Z,1.20
2019-05-15T11:32:02.135Z,1.00
2019-05-15T11:34:31.947Z,1.17
2019-05-15T11:37:02.420Z,1.07
2019-05-15T11:39:32.146Z,1.23
2019-05-15T11:42:01.815Z,1.00
2019-05-15T11:44:31.561Z,1.40
2019-05-15T11:47:01.348Z,1.20
2019-05-15T11:49:31.065Z,0.97
2019-05-15T11:52:00.852Z,1.20
2019-05-15T11:54:30.856Z,1.30
2019-05-15T11:57:02.254Z,1.10
2019-05-15T11:59:32.332Z,1.10
2019-05-15T12:02:02.496Z,1.20
2019-05-15T12:04:34.192Z,1.10
2019-05-15T12:07:03.605Z,1.20
2019-05-15T12:09:33.326Z,1.40
2019-05-15T12:12:03.330Z,1.30
2019-05-15T12:14:33.141Z,1.10
2019-05-15T12:17:11.140Z,1.20
2019-05-15T12:19:34.358Z,1.10
2019-05-15T12:22:04.079Z,1.33
2019-05-15T12:24:36.838Z,1.30
2019-05-15T12:29:39.547Z,1.27
2019-05-15T12:32:23.533Z,1.30
2019-05-15T12:34:39.771Z,1.00
2019-05-15T12:37:09.938Z,1.20
2019-05-15T12:39:41.094Z,1.50
2019-05-15T12:59:54.772Z,1.30
2019-05-15T13:02:25.034Z,1.27
2019-05-15T13:05:04.072Z,1.40
2019-05-15T13:07:34.741Z,1.10
2019-05-15T13:10:08.676Z,1.23
2019-05-15T13:12:55.333Z,1.10
2019-05-15T13:15:11.746Z,1.10
2019-05-15T13:17:41.386Z,1.50
2019-05-15T13:20:11.821Z,1.50
2019-05-15T13:22:43.460Z,1.47
2019-05-15T13:25:13.045Z,1.20
2019-05-15T13:27:43.533Z,1.23
2019-05-15T13:30:14.585Z,1.40
2019-05-15T13:32:44.334Z,1.30
2019-05-15T13:35:14.506Z,1.37
2019-05-15T13:37:44.256Z,1.27
2019-05-15T13:40:14.184Z,1.17
2019-05-15T13:42:43.851Z,1.50
2019-05-15T13:45:19.561Z,1.33
2019-05-15T13:47:49.526Z,1.20
2019-05-15T13:50:19.605Z,1.43
2019-05-15T13:52:49.562Z,1.20
2019-05-15T13:55:25.914Z,0.90
2019-05-15T13:57:52.033Z,1.30
2019-05-15T14:00:22.959Z,1.17
2019-05-15T14:02:52.832Z,0.90
2019-05-15T14:05:22.481Z,0.73
2019-05-15T14:07:53.575Z,1.00
2019-05-15T14:10:23.864Z,1.00
2019-05-15T14:12:53.793Z,1.07
2019-05-15T14:15:23.429Z,1.10
2019-05-15T14:17:53.759Z,1.00
2019-05-15T14:20:23.626Z,1.00
2019-05-15T14:22:53.451Z,1.20
2019-05-15T14:25:23.345Z,1.30
2019-05-15T14:27:53.476Z,1.07
2019-05-15T14:30:23.312Z,1.20
2019-05-15T14:32:54.394Z,1.03
2019-05-15T14:35:24.646Z,1.00
2019-05-15T14:38:03.708Z,1.83
2019-05-15T14:40:25.842Z,0.97
2019-05-15T14:42:55.526Z,1.20
2019-05-15T14:45:28.135Z,1.27
2019-05-15T14:47:59.639Z,1.00
2019-05-15T14:50:35.418Z,1.30
2019-05-15T14:53:06.299Z,1.10
2019-05-15T14:55:43.974Z,1.00
2019-05-15T14:58:19.769Z,1.20
2019-05-15T15:00:49.970Z,1.10
2019-05-15T15:03:23.207Z,1.10
2019-05-15T15:05:53.007Z,1.07
2019-05-15T15:08:25.299Z,1.13
2019-05-15T15:10:54.966Z,1.30
2019-05-15T15:13:28.856Z,1.20
2019-05-15T15:15:59.219Z,1.20
2019-05-15T15:18:35.001Z,1.30
2019-05-15T15:21:05.502Z,1.37
2019-05-15T15:23:38.319Z,1.43
2019-05-15T15:26:08.279Z,1.27
2019-05-15T15:28:40.239Z,1.20
2019-05-15T15:31:12.702Z,1.40
2019-05-15T15:33:43.393Z,1.27
2019-05-15T15:36:15.179Z,1.30
2019-05-15T15:38:53.312Z,1.20
2019-05-15T15:41:53.450Z,1.20
2019-05-15T15:44:29.960Z,1.10
2019-05-15T15:46:59.849Z,1.23
2019-05-15T15:52:33.782Z,1.20
2019-05-15T15:55:18.448Z,1.57
2019-05-15T15:58:10.871Z,1.10
2019-05-15T16:00:42.537Z,1.20
2019-05-15T16:10:03.218Z,1.30
2019-05-15T16:12:33.655Z,1.27
2019-05-15T16:15:05.775Z,1.20
2019-05-15T16:17:39.906Z,1.30
2019-05-15T16:20:11.183Z,1.20
2019-05-15T16:22:48.519Z,1.30
2019-05-15T16:25:35.739Z,1.23
2019-05-15T16:33:51.063Z,1.10
2019-05-15T16:36:20.851Z,1.70
2019-05-15T16:39:05.234Z,1.57
2019-05-15T16:41:31.043Z,1.50
2019-05-15T16:44:02.465Z,1.00
2019-05-15T16:49:24.701Z,1.00
2019-05-15T16:51:58.760Z,1.30
2019-05-15T17:04:18.372Z,1.30
2019-05-15T17:16:31.585Z,1.20
2019-05-15T17:19:03.788Z,1.13
2019-05-15T17:21:43.602Z,1.53
2019-05-15T17:24:18.489Z,1.40
2019-05-15T17:26:50.074Z,1.60
2019-05-15T17:29:21.871Z,1.53
2019-05-15T17:31:58.207Z,2.23
2019-05-15T17:34:37.973Z,1.70
2019-05-15T17:37:12.054Z,2.00
2019-05-15T17:39:42.217Z,1.20
2019-05-15T17:42:12.208Z,1.23
2019-05-15T17:44:42.248Z,1.73
2019-05-15T17:47:12.874Z,1.50
2019-05-15T17:49:58.730Z,1.40
2019-05-15T17:52:28.918Z,1.20
2019-05-15T17:55:00.393Z,1.30
2019-05-15T17:57:30.895Z,1.50
2019-05-15T18:00:01.954Z,1.50
2019-05-15T18:02:32.471Z,1.43
2019-05-15T18:05:03.201Z,1.20
2019-05-15T18:07:34.007Z,1.33
2019-05-15T18:10:05.286Z,1.30
2019-05-15T18:12:35.213Z,1.30
2019-05-15T18:15:09.132Z,1.50
2019-05-15T18:17:41.028Z,1.70
2019-05-15T18:20:14.110Z,1.53
2019-05-15T18:23:00.754Z,1.67
2019-05-15T18:25:32.314Z,1.93
2019-05-15T18:28:02.796Z,1.60
2019-05-15T18:30:34.093Z,1.63
2019-05-15T18:33:04.738Z,1.30
2019-05-15T18:35:34.592Z,1.60
2019-05-15T18:38:05.504Z,1.90
2019-05-15T18:40:35.406Z,1.60
2019-05-15T18:43:05.286Z,1.67
2019-05-15T18:45:35.468Z,1.60
2019-05-15T18:48:05.481Z,1.50
2019-05-15T18:50:37.771Z,1.73
2019-05-15T18:53:08.926Z,1.67
2019-05-15T18:55:39.160Z,1.50
2019-05-15T18:58:09.358Z,1.50
2019-05-15T19:00:40.350Z,1.47
2019-05-15T19:03:19.654Z,1.50
2019-05-15T19:05:47.740Z,1.40
2019-05-15T19:08:18.868Z,1.40
2019-05-15T19:10:53.507Z,1.80
2019-05-15T19:13:23.933Z,1.80
2019-05-15T19:15:57.961Z,1.40
2019-05-15T19:18:28.071Z,1.90
2019-05-15T19:21:01.035Z,1.63
2019-05-15T19:23:32.580Z,1.57
2019-05-15T19:26:12.010Z,1.53
2019-05-15T19:28:42.019Z,1.50
2019-05-15T19:31:23.216Z,1.63
2019-05-15T19:33:44.150Z,1.40
2019-05-15T19:36:15.190Z,1.80
2019-05-15T19:38:44.988Z,1.67
2019-05-15T19:41:18.179Z,1.60
2019-05-15T19:43:48.762Z,1.90
2019-05-15T19:46:18.998Z,1.60
2019-05-15T19:48:49.033Z,2.07
2019-05-15T19:51:19.313Z,1.30
2019-05-15T19:53:49.829Z,1.80
2019-05-15T19:56:19.549Z,1.50
2019-05-15T19:58:49.275Z,1.60
2019-05-15T20:01:19.057Z,1.37
2019-05-15T20:03:52.845Z,1.50
2019-05-15T20:06:20.153Z,1.47
2019-05-15T20:08:50.192Z,2.70
2019-05-15T20:11:20.001Z,2.00
2019-05-15T20:13:50.148Z,1.30
2019-05-15T20:16:21.450Z,1.40
2019-05-15T20:18:51.621Z,1.30
2019-05-15T20:21:21.975Z,1.30
2019-05-15T20:23:52.695Z,1.30
2019-05-15T20:26:22.755Z,1.57
2019-05-15T20:28:52.776Z,1.43
2019-05-15T20:31:22.479Z,1.27
2019-05-15T20:34:06.033Z,1.50
2019-05-15T20:36:29.919Z,1.47
2019-05-15T20:39:01.171Z,1.20
2019-05-15T20:41:30.898Z,1.23
2019-05-15T20:44:00.616Z,1.33
2019-05-15T20:46:30.780Z,1.10
2019-05-15T20:49:00.561Z,1.57
2019-05-15T20:51:30.289Z,1.50
2019-05-15T20:54:00.601Z,1.63
2019-05-15T20:56:30.794Z,1.50
2019-05-15T20:59:00.430Z,1.30
2019-05-15T21:01:30.149Z,1.37
2019-05-15T21:03:59.853Z,1.33
2019-05-15T21:06:29.827Z,1.30
2019-05-15T21:08:59.585Z,1.30
2019-05-15T21:11:33.765Z,1.13
2019-05-15T21:14:03.766Z,1.40
2019-05-15T21:16:33.815Z,1.50
2019-05-15T21:19:03.925Z,1.47
2019-05-15T21:21:35.200Z,1.10
2019-05-15T21:24:05.055Z,1.20
2019-05-15T21:26:35.499Z,1.30
2019-05-15T21:29:07.515Z,1.10
2019-05-15T21:31:37.944Z,1.20
2019-05-15T21:34:08.914Z,1.30
2019-05-15T21:36:39.498Z,1.10
2019-05-15T21:39:09.260Z,1.40
2019-05-15T21:41:39.421Z,1.10
2019-05-15T21:44:12.489Z,1.30
2019-05-15T21:46:43.744Z,1.03
2019-05-15T21:49:13.477Z,1.13
2019-05-15T21:51:43.287Z,1.17
2019-05-15T21:54:15.994Z,1.70
2019-05-15T21:56:47.512Z,1.20
2019-05-15T21:59:18.781Z,1.17
2019-05-15T22:01:48.675Z,0.97
2019-05-15T22:04:18.570Z,1.00
2019-05-15T22:06:49.212Z,1.00
2019-05-15T22:09:20.750Z,1.27
2019-05-15T22:11:50.659Z,1.10
2019-05-15T22:14:20.734Z,1.00
2019-05-15T22:16:50.751Z,1.20
2019-05-15T22:19:20.910Z,1.10
2019-05-15T22:21:50.734Z,1.30
2019-05-15T22:24:20.536Z,1.40
2019-05-15T22:26:51.122Z,1.00
2019-05-15T22:29:20.985Z,1.10
2019-05-15T22:31:50.744Z,1.20
2019-05-15T22:34:21.653Z,0.87
2019-05-15T22:36:51.455Z,1.27
2019-05-15T22:39:21.847Z,1.00
2019-05-15T22:41:51.930Z,1.07
2019-05-15T22:44:21.897Z,1.07
2019-05-15T22:46:51.668Z,1.10
2019-05-15T22:49:21.450Z,1.10
2019-05-15T22:51:51.183Z,1.27
2019-05-15T22:54:21.278Z,1.10
2019-05-15T22:56:51.095Z,1.10
2019-05-15T22:59:21.209Z,1.20
2019-05-15T23:01:51.380Z,1.00
2019-05-15T23:04:21.178Z,1.10
2019-05-15T23:06:50.922Z,1.20
2019-05-15T23:09:20.765Z,1.20
2019-05-15T23:11:50.548Z,1.00
2019-05-15T23:14:20.253Z,1.10
2019-05-15T23:16:50.533Z,1.10
2019-05-15T23:19:20.792Z,1.20
2019-05-15T23:21:50.518Z,1.30
2019-05-15T23:24:20.399Z,1.30
2019-05-15T23:26:50.396Z,1.20
2019-05-15T23:29:20.128Z,1.07
2019-05-15T23:31:49.853Z,1.20
2019-05-15T23:34:19.600Z,1.10
2019-05-15T23:36:49.411Z,1.10
2019-05-15T23:39:19.290Z,1.30
2019-05-15T23:41:49.048Z,1.30
2019-05-15T23:44:19.085Z,1.03
2019-05-15T23:46:49.294Z,0.97
2019-05-15T23:49:19.855Z,1.27
2019-05-15T23:51:49.788Z,1.13
2019-05-15T23:54:19.834Z,1.40
2019-05-15T23:56:50.591Z,1.23
2019-05-15T23:59:20.650Z,1.43
